createdAt,value
2023-04-17T00:00:14.736Z,100679.52
2023-04-17T00:02:45.166Z,100676.20
2023-04-17T00:05:13.783Z,100682.37
2023-04-17T00:07:42.206Z,100683.34
2023-04-17T00:10:12.462Z,100678.91
2023-04-17T00:12:40.427Z,100680.11
2023-04-17T00:15:09.004Z,100684.20
2023-04-17T00:17:37.497Z,100683.74
2023-04-17T00:20:12.432Z,100685.52
2023-04-17T00:22:41.076Z,100686.05
2023-04-17T00:25:11.156Z,100682.67
2023-04-17T00:27:39.689Z,100680.15
2023-04-17T00:30:08.514Z,100682.17
2023-04-17T00:32:37.907Z,100679.55
2023-04-17T00:35:07.102Z,100683.06
2023-04-17T00:37:36.303Z,100684.77
2023-04-17T00:40:04.982Z,100678.98
2023-04-17T00:42:33.135Z,100681.54
2023-04-17T00:45:01.190Z,100683.25
2023-04-17T00:47:29.464Z,100679.79
2023-04-17T00:49:57.467Z,100678.63
2023-04-17T00:52:29.941Z,100684.91
2023-04-17T00:54:58.409Z,100682.15
2023-04-17T00:57:26.480Z,100683.91
2023-04-17T00:59:55.363Z,100680.45
2023-04-17T01:02:23.335Z,100678.82
2023-04-17T01:04:51.411Z,100673.95
2023-04-17T01:07:19.432Z,100678.41
2023-04-17T01:09:47.299Z,100674.63
2023-04-17T01:12:24.956Z,100673.80
2023-04-17T01:14:53.820Z,100676.98
2023-04-17T01:17:22.095Z,100677.23
2023-04-17T01:19:50.713Z,100679.36
2023-04-17T01:22:20.681Z,100680.42
2023-04-17T01:24:49.270Z,100680.26
2023-04-17T01:27:17.714Z,100676.83
2023-04-17T01:29:46.226Z,100678.83
2023-04-17T01:32:14.437Z,100674.95
2023-04-17T01:34:42.392Z,100673.35
2023-04-17T01:37:10.438Z,100670.69
2023-04-17T01:39:38.308Z,100672.36
2023-04-17T01:42:06.725Z,100670.66
2023-04-17T01:44:37.625Z,100668.28
2023-04-17T01:47:05.834Z,100668.92
2023-04-17T01:49:34.035Z,100669.06
2023-04-17T01:52:02.075Z,100675.02
2023-04-17T01:54:30.677Z,100675.95
2023-04-17T01:56:58.922Z,100673.39
2023-04-17T01:59:27.155Z,100676.59
2023-04-17T02:01:55.470Z,100676.92
2023-04-17T02:04:23.668Z,100676.85
2023-04-17T02:06:51.611Z,100674.89
2023-04-17T02:09:19.576Z,100674.35
2023-04-17T02:11:47.569Z,100672.63
2023-04-17T02:14:16.073Z,100679.25
2023-04-17T02:16:45.852Z,100680.61
2023-04-17T02:19:13.993Z,100679.71
2023-04-17T02:21:42.262Z,100678.48
2023-04-17T02:24:10.387Z,100680.16
2023-04-17T02:26:38.932Z,100680.81
2023-04-17T02:29:06.840Z,100684.31
2023-04-17T02:31:34.735Z,100683.98
2023-04-17T02:34:02.955Z,100684.71
2023-04-17T02:36:31.342Z,100683.38
2023-04-17T02:38:59.300Z,100683.42
2023-04-17T02:41:27.247Z,100685.48
2023-04-17T02:43:56.714Z,100689.54
2023-04-17T02:46:24.746Z,100688.85
2023-04-17T02:48:52.774Z,100692.05
2023-04-17T02:51:21.933Z,100691.22
2023-04-17T02:53:49.890Z,100690.80
2023-04-17T02:56:18.254Z,100694.11
2023-04-17T02:58:46.350Z,100695.70
2023-04-17T03:01:14.487Z,100698.58
2023-04-17T03:03:45.198Z,100698.17
2023-04-17T03:06:14.445Z,100701.95
2023-04-17T03:08:42.483Z,100701.41
2023-04-17T03:11:10.515Z,100706.94
2023-04-17T03:13:39.125Z,100709.41
2023-04-17T03:16:07.394Z,100708.52
2023-04-17T03:18:39.855Z,100711.39
2023-04-17T03:21:07.996Z,100715.03
2023-04-17T03:23:36.386Z,100715.27
2023-04-17T03:26:04.642Z,100713.04
2023-04-17T03:28:33.712Z,100713.90
2023-04-17T03:31:02.277Z,100719.80
2023-04-17T03:33:31.801Z,100719.06
2023-04-17T03:35:59.678Z,100722.93
2023-04-17T03:38:27.500Z,100726.36
2023-04-17T03:40:55.605Z,100728.83
2023-04-17T03:43:25.128Z,100731.91
2023-04-17T03:45:53.050Z,100732.45
2023-04-17T03:48:22.059Z,100734.25
2023-04-17T03:50:51.442Z,100734.03
2023-04-17T03:53:19.672Z,100733.46
2023-04-17T03:55:47.811Z,100737.77
2023-04-17T03:58:23.864Z,100737.99
2023-04-17T04:00:56.357Z,100736.30
2023-04-17T04:03:26.782Z,100737.42
2023-04-17T04:05:54.990Z,100740.09
2023-04-17T04:08:23.629Z,100740.59
2023-04-17T04:10:53.103Z,100744.52
2023-04-17T04:13:31.856Z,100744.27
2023-04-17T04:16:00.210Z,100746.86
2023-04-17T04:18:29.939Z,100746.66
2023-04-17T04:20:58.474Z,100748.55
2023-04-17T04:23:30.728Z,100747.02
2023-04-17T04:26:01.767Z,100749.85
2023-04-17T04:28:47.446Z,100752.52
2023-04-17T04:31:20.014Z,100754.52
2023-04-17T04:33:55.176Z,100760.89
2023-04-17T04:36:24.002Z,100757.35
2023-04-17T04:38:59.881Z,100757.35
2023-04-17T04:41:33.969Z,100763.24
2023-04-17T04:44:03.064Z,100762.71
2023-04-17T04:46:31.243Z,100763.81
2023-04-17T04:48:59.454Z,100763.84
2023-04-17T04:51:27.818Z,100765.05
2023-04-17T04:53:56.259Z,100766.75
2023-04-17T04:56:24.260Z,100765.61
2023-04-17T04:58:52.173Z,100762.78
2023-04-17T05:01:21.110Z,100762.48
2023-04-17T05:03:50.713Z,100767.31
2023-04-17T05:06:23.393Z,100765.52
2023-04-17T05:08:55.859Z,100768.85
2023-04-17T05:11:24.213Z,100767.65
2023-04-17T05:13:52.495Z,100773.31
2023-04-17T05:16:25.567Z,100774.11
2023-04-17T05:18:53.931Z,100775.94
2023-04-17T05:21:32.513Z,100775.46
2023-04-17T05:24:02.107Z,100779.52
2023-04-17T05:26:30.495Z,100780.21
2023-04-17T05:28:58.485Z,100782.27
2023-04-17T05:31:29.473Z,100788.91
2023-04-17T05:33:59.111Z,100796.82
2023-04-17T05:36:27.917Z,100800.73
2023-04-17T05:38:57.030Z,100800.16
2023-04-17T05:41:26.309Z,100802.96
2023-04-17T05:43:54.681Z,100801.07
2023-04-17T05:46:22.923Z,100800.30
2023-04-17T05:48:51.344Z,100796.48
2023-04-17T05:51:21.702Z,100795.08
2023-04-17T05:53:49.750Z,100801.65
2023-04-17T05:56:18.269Z,100799.07
2023-04-17T05:58:46.267Z,100801.89
2023-04-17T06:01:17.181Z,100801.17
2023-04-17T06:03:45.464Z,100802.60
2023-04-17T06:06:17.774Z,100805.23
2023-04-17T06:08:46.526Z,100807.87
2023-04-17T06:11:15.825Z,100809.00
2023-04-17T06:13:44.272Z,100809.90
2023-04-17T06:16:12.302Z,100810.86
